createdAt,value
2019-02-08T00:04:45.908Z,30.70
2019-02-08T00:07:15.918Z,34.40
2019-02-08T00:09:45.515Z,32.20
2019-02-08T00:12:15.257Z,30.37
2019-02-08T00:14:44.942Z,34.40
2019-02-08T00:17:14.601Z,30.07
2019-02-08T00:19:44.275Z,36.17
2019-02-08T00:22:14.328Z,31.80
2019-02-08T00:24:43.941Z,40.93
2019-02-08T00:27:13.665Z,39.73
2019-02-08T00:29:43.333Z,34.80
2019-02-08T00:32:12.988Z,30.50
2019-02-08T00:34:42.647Z,32.93
2019-02-08T00:37:12.536Z,27.97
2019-02-08T00:39:42.180Z,33.67
2019-02-08T00:42:11.768Z,39.93
2019-02-08T00:44:41.399Z,34.47
2019-02-08T00:47:11.056Z,35.43
2019-02-08T00:49:40.658Z,34.90
2019-02-08T00:52:10.734Z,33.17
2019-02-08T00:54:40.334Z,38.33
2019-02-08T00:57:10.126Z,30.83
2019-02-08T00:59:39.726Z,39.83
2019-02-08T01:02:09.376Z,37.50
2019-02-08T01:04:38.976Z,36.07
2019-02-08T01:07:08.623Z,40.20
2019-02-08T01:09:38.242Z,41.20
2019-02-08T01:12:07.913Z,33.37
2019-02-08T01:14:37.516Z,33.53
2019-02-08T01:17:07.167Z,40.43
2019-02-08T01:19:36.762Z,35.27
2019-02-08T01:22:06.573Z,35.73
2019-02-08T01:24:36.611Z,36.63
2019-02-08T01:27:06.275Z,38.53
2019-02-08T01:29:35.871Z,39.20
2019-02-08T01:32:05.542Z,34.60
2019-02-08T01:34:35.133Z,40.63
2019-02-08T01:37:04.730Z,41.70
2019-02-08T01:39:34.364Z,40.67
2019-02-08T01:42:03.956Z,36.43
2019-02-08T01:44:33.739Z,34.20
2019-02-08T01:47:03.324Z,40.20
2019-02-08T01:49:32.968Z,40.43
2019-02-08T01:52:02.618Z,38.17
2019-02-08T01:54:32.293Z,32.60
2019-02-08T01:57:01.940Z,39.97
2019-02-08T01:59:31.502Z,38.90
2019-02-08T02:02:01.156Z,33.73
2019-02-08T02:04:30.766Z,38.77
2019-02-08T02:07:00.449Z,36.80
2019-02-08T02:09:30.110Z,38.37
2019-02-08T02:11:59.715Z,39.00
2019-02-08T02:14:29.323Z,39.20
2019-02-08T02:16:59.075Z,31.63
2019-02-08T02:19:28.804Z,41.80
2019-02-08T02:21:58.553Z,37.00
2019-02-08T02:24:28.142Z,37.33
2019-02-08T02:26:57.813Z,33.27
2019-02-08T02:29:27.419Z,42.60
2019-02-08T02:31:57.069Z,34.77
2019-02-08T02:34:26.672Z,39.67
2019-02-08T02:36:56.340Z,34.93
2019-02-08T02:39:26.015Z,40.23
2019-02-08T02:41:55.603Z,41.33
2019-02-08T02:44:25.289Z,35.57
2019-02-08T02:46:54.886Z,39.43
2019-02-08T02:49:24.533Z,37.67
2019-02-08T02:51:54.145Z,40.80
2019-02-08T02:54:23.878Z,40.33
2019-02-08T02:56:53.450Z,40.50
2019-02-08T02:59:23.102Z,38.30
2019-02-08T03:01:52.707Z,35.13
2019-02-08T03:04:22.354Z,35.07
2019-02-08T03:06:51.945Z,34.93
2019-02-08T03:09:21.591Z,38.23
2019-02-08T03:11:51.156Z,33.20
2019-02-08T03:14:20.813Z,30.70
2019-02-08T03:16:50.448Z,36.13
2019-02-08T03:19:20.059Z,35.07
2019-02-08T03:21:49.719Z,32.70
2019-02-08T03:24:19.384Z,31.50
2019-02-08T03:26:48.973Z,28.70
2019-02-08T03:29:18.628Z,33.23
2019-02-08T03:31:48.823Z,31.20
2019-02-08T03:34:18.493Z,33.17
2019-02-08T03:36:48.124Z,27.10
2019-02-08T03:39:17.809Z,33.60
2019-02-08T03:41:47.437Z,34.77
2019-02-08T03:44:17.045Z,37.97
2019-02-08T03:46:46.703Z,28.47
2019-02-08T03:49:16.303Z,34.63
2019-02-08T03:51:45.959Z,40.23
2019-02-08T03:54:20.878Z,34.63
2019-02-08T03:56:46.872Z,32.63
2019-02-08T03:59:16.440Z,31.80
2019-02-08T04:01:46.102Z,28.83
2019-02-08T04:04:17.203Z,37.37
2019-02-08T04:06:46.841Z,30.37
2019-02-08T04:09:16.594Z,31.07
2019-02-08T04:11:46.240Z,35.40
2019-02-08T04:14:15.985Z,35.13
2019-02-08T04:16:45.577Z,31.33
2019-02-08T04:19:15.241Z,29.13
2019-02-08T04:21:44.858Z,33.70
2019-02-08T04:24:14.549Z,34.40
2019-02-08T04:26:44.163Z,32.97
2019-02-08T04:29:13.823Z,35.07
2019-02-08T04:31:43.488Z,33.80
2019-02-08T04:34:13.107Z,34.00
2019-02-08T04:36:42.725Z,33.40
2019-02-08T04:39:12.390Z,32.13
2019-02-08T04:41:41.994Z,31.10
2019-02-08T04:44:11.695Z,31.60
2019-02-08T04:46:41.334Z,29.43
2019-02-08T04:49:11.044Z,32.03
2019-02-08T04:51:40.730Z,32.37
2019-02-08T04:54:10.426Z,36.03
2019-02-08T04:56:40.100Z,36.70
2019-02-08T04:59:09.724Z,43.57
2019-02-08T05:01:39.416Z,43.50
2019-02-08T05:04:09.061Z,37.07
2019-02-08T05:06:38.641Z,35.63
2019-02-08T05:09:09.448Z,35.17
2019-02-08T05:11:39.077Z,30.17
2019-02-08T05:14:08.665Z,33.00
2019-02-08T05:16:38.367Z,36.10
2019-02-08T05:19:08.075Z,31.40
2019-02-08T05:21:37.741Z,31.87
2019-02-08T05:24:07.444Z,35.27
2019-02-08T05:26:37.105Z,37.23
2019-02-08T05:29:06.740Z,32.77
2019-02-08T05:31:36.387Z,31.17
2019-02-08T05:34:06.266Z,30.53
2019-02-08T05:36:35.886Z,28.53
2019-02-08T05:39:10.014Z,33.97
2019-02-08T05:41:39.709Z,30.00
2019-02-08T05:44:09.346Z,38.07
2019-02-08T05:46:39.067Z,33.50
2019-02-08T05:49:08.735Z,34.83
2019-02-08T05:51:38.337Z,34.70
2019-02-08T05:54:08.108Z,32.77
2019-02-08T05:56:37.700Z,38.60
2019-02-08T05:59:07.462Z,31.37
2019-02-08T06:01:37.106Z,39.70
2019-02-08T06:04:06.804Z,31.07
2019-02-08T06:06:36.448Z,29.00
2019-02-08T06:09:09.341Z,33.67
2019-02-08T06:11:39.003Z,29.87
2019-02-08T06:14:08.709Z,30.70
2019-02-08T06:16:38.393Z,41.50
2019-02-08T06:19:08.015Z,27.93
2019-02-08T06:21:37.673Z,30.17
2019-02-08T06:24:07.339Z,33.60
2019-02-08T06:26:37.055Z,32.73
2019-02-08T06:29:06.691Z,34.10
2019-02-08T06:31:36.345Z,39.17
2019-02-08T06:34:06.053Z,33.87
2019-02-08T06:36:35.727Z,30.73
2019-02-08T06:39:08.728Z,29.90
2019-02-08T06:41:38.384Z,29.30
2019-02-08T06:44:08.211Z,34.10
2019-02-08T06:46:38.019Z,36.23
2019-02-08T06:49:07.630Z,28.07
2019-02-08T06:51:37.315Z,31.97
2019-02-08T06:54:07.135Z,27.53
2019-02-08T06:56:54.659Z,30.33
2019-02-08T06:59:34.552Z,30.23
2019-02-08T07:02:26.051Z,24.80
2019-02-08T07:05:17.784Z,28.73
2019-02-08T07:08:12.176Z,30.73
2019-02-08T07:11:07.407Z,28.63
2019-02-08T07:13:47.097Z,31.30
2019-02-08T07:16:27.485Z,42.90
2019-02-08T07:19:16.268Z,30.00
2019-02-08T07:22:01.941Z,24.73
2019-02-08T07:24:47.145Z,28.20
2019-02-08T07:31:35.322Z,27.60
2019-02-08T07:34:15.093Z,25.80
2019-02-08T07:37:03.975Z,30.60
2019-02-08T07:39:48.703Z,29.23
2019-02-08T07:42:36.223Z,23.87
2019-02-08T07:45:24.475Z,28.17
2019-02-08T07:48:10.947Z,27.20
2019-02-08T07:50:52.331Z,26.70
2019-02-08T07:53:37.587Z,24.70
2019-02-08T07:56:32.231Z,26.60
2019-02-08T08:06:13.225Z,20.80
2019-02-08T08:09:01.101Z,24.33
2019-02-08T08:11:45.206Z,20.63
2019-02-08T08:14:29.138Z,19.30
2019-02-08T08:17:17.971Z,21.67
2019-02-08T08:20:07.249Z,18.73
2019-02-08T08:22:55.075Z,20.43
2019-02-08T08:26:01.823Z,19.83
2019-02-08T08:28:56.501Z,21.17
2019-02-08T08:31:32.875Z,16.73
2019-02-08T08:34:10.001Z,17.60
2019-02-08T08:37:39.085Z,18.60
2019-02-08T08:40:32.579Z,16.53
2019-02-08T08:43:33.570Z,16.53
2019-02-08T08:46:37.784Z,12.03
2019-02-08T08:49:37.391Z,10.50
2019-02-08T08:52:40.930Z,15.13
2019-02-08T08:55:33.368Z,12.47
2019-02-08T08:58:37.915Z,13.97
2019-02-08T09:05:23.600Z,10.77
2019-02-08T09:08:55.509Z,10.53
2019-02-08T09:12:09.396Z,11.23
2019-02-08T09:15:06.027Z,11.63
2019-02-08T09:18:04.305Z,11.87
2019-02-08T09:20:54.643Z,10.73
2019-02-08T09:24:04.753Z,10.90
2019-02-08T09:27:03.010Z,7.13
2019-02-08T09:30:19.050Z,8.23
2019-02-08T09:33:39.045Z,8.40
2019-02-08T09:36:47.604Z,9.47
2019-02-08T09:40:00.179Z,6.63
2019-02-08T09:43:03.754Z,6.83
2019-02-08T09:46:20.298Z,7.30
2019-02-08T09:49:20.052Z,7.07
2019-02-08T09:52:16.396Z,8.70
2019-02-08T09:55:32.995Z,7.93
2019-02-08T09:58:38.510Z,8.70
2019-02-08T10:01:54.811Z,5.03
2019-02-08T10:05:08.398Z,9.37
2019-02-08T10:08:27.839Z,5.17
2019-02-08T10:11:47.440Z,7.83
2019-02-08T10:15:06.518Z,12.43
2019-02-08T10:18:25.362Z,7.37
2019-02-08T10:21:41.893Z,5.37
2019-02-08T10:24:48.515Z,6.73
2019-02-08T10:28:14.623Z,7.57
2019-02-08T10:31:39.611Z,7.10
2019-02-08T10:34:52.672Z,7.60
2019-02-08T10:38:12.256Z,4.50
2019-02-08T10:41:09.210Z,7.33
2019-02-08T10:44:10.902Z,6.47
2019-02-08T10:47:18.005Z,5.87
2019-02-08T10:50:24.865Z,7.87
2019-02-08T10:53:29.378Z,4.90
2019-02-08T10:56:52.224Z,6.57
2019-02-08T11:00:06.239Z,4.60
2019-02-08T11:03:29.461Z,5.53
2019-02-08T11:06:49.714Z,10.10
2019-02-08T11:10:02.108Z,6.10
2019-02-08T11:13:21.811Z,10.63
2019-02-08T11:16:35.507Z,5.27
2019-02-08T11:19:19.661Z,6.10
2019-02-08T11:21:53.338Z,6.93
2019-02-08T11:24:24.670Z,7.43
2019-02-08T11:26:55.436Z,5.30
2019-02-08T11:29:25.339Z,7.77
2019-02-08T11:31:54.961Z,9.60
2019-02-08T11:34:24.721Z,6.40
2019-02-08T11:36:54.558Z,6.37
2019-02-08T11:39:24.231Z,5.77
2019-02-08T11:41:53.951Z,8.33
2019-02-08T11:44:24.145Z,8.27
2019-02-08T11:46:53.928Z,5.33
2019-02-08T11:49:24.604Z,4.07
2019-02-08T11:51:54.289Z,9.33
2019-02-08T11:54:24.045Z,6.63
2019-02-08T11:56:53.650Z,6.43
2019-02-08T11:59:23.414Z,5.77
2019-02-08T12:01:53.399Z,3.97
2019-02-08T12:04:23.154Z,5.57
2019-02-08T12:06:55.269Z,8.73
2019-02-08T12:09:25.056Z,6.27
2019-02-08T12:11:54.767Z,6.93
2019-02-08T12:14:24.564Z,5.07
2019-02-08T12:16:54.232Z,7.47
2019-02-08T12:19:23.884Z,6.40
2019-02-08T12:21:53.474Z,7.87
2019-02-08T12:24:23.177Z,4.23
2019-02-08T12:26:52.792Z,6.17
2019-02-08T12:29:23.500Z,5.13
2019-02-08T12:31:53.429Z,4.00
2019-02-08T12:34:40.935Z,5.77
2019-02-08T12:37:11.083Z,5.67
2019-02-08T12:39:40.815Z,6.23
2019-02-08T12:42:14.126Z,5.60
2019-02-08T12:44:45.443Z,7.70
2019-02-08T12:47:18.493Z,6.73
2019-02-08T12:49:49.473Z,6.70
2019-02-08T12:52:22.694Z,7.63
2019-02-08T12:54:53.612Z,6.73
2019-02-08T12:57:24.649Z,5.47
2019-02-08T12:59:55.898Z,7.90
2019-02-08T13:02:25.558Z,7.90
2019-02-08T13:04:56.558Z,8.87
2019-02-08T13:07:26.291Z,6.40
2019-02-08T13:09:56.015Z,11.40
2019-02-08T13:12:25.738Z,5.50
2019-02-08T13:15:10.093Z,7.10
2019-02-08T13:17:41.276Z,7.00
2019-02-08T13:20:13.694Z,6.60
2019-02-08T13:22:43.644Z,7.07
2019-02-08T13:25:15.188Z,5.07
2019-02-08T13:27:45.192Z,5.30
2019-02-08T13:30:18.970Z,5.30
2019-02-08T13:32:48.810Z,5.23
2019-02-08T13:35:18.894Z,5.77
2019-02-08T13:37:50.709Z,5.20
2019-02-08T13:40:20.778Z,3.40
2019-02-08T13:42:53.946Z,5.00
2019-02-08T13:45:24.090Z,4.43
2019-02-08T13:47:54.108Z,5.60
2019-02-08T13:50:25.517Z,4.07
2019-02-08T13:52:58.502Z,3.67
2019-02-08T13:55:28.827Z,5.73
2019-02-08T13:57:58.742Z,9.47
2019-02-08T14:00:31.186Z,6.23
2019-02-08T14:03:01.139Z,6.70
2019-02-08T14:05:31.606Z,8.10
2019-02-08T14:08:01.267Z,4.57
2019-02-08T14:10:31.141Z,6.60
2019-02-08T14:13:00.811Z,10.10
2019-02-08T14:15:30.803Z,4.83
2019-02-08T14:18:09.625Z,3.60
2019-02-08T14:20:41.403Z,5.43
2019-02-08T14:23:11.914Z,5.77
2019-02-08T14:25:43.996Z,8.53
2019-02-08T14:28:14.958Z,5.70
2019-02-08T14:30:46.122Z,5.43
2019-02-08T14:33:17.333Z,8.57
2019-02-08T14:35:48.855Z,4.70
2019-02-08T14:38:22.770Z,9.33
2019-02-08T14:40:57.867Z,5.20
2019-02-08T14:43:27.580Z,5.67
2019-02-08T14:45:57.266Z,7.40
2019-02-08T14:48:28.576Z,7.67
2019-02-08T14:50:59.822Z,3.47
2019-02-08T14:53:30.889Z,5.47
2019-02-08T14:56:02.744Z,3.33
2019-02-08T14:58:34.345Z,2.60
2019-02-08T15:01:04.887Z,5.67
2019-02-08T15:03:34.657Z,4.87
2019-02-08T15:06:04.643Z,4.43
2019-02-08T15:08:35.922Z,2.83
2019-02-08T15:11:10.070Z,4.87
2019-02-08T15:13:50.935Z,6.63
2019-02-08T15:16:30.270Z,3.67
2019-02-08T15:19:22.934Z,2.23
2019-02-08T15:22:03.526Z,2.00
2019-02-08T15:24:35.421Z,2.30
2019-02-08T15:27:07.355Z,5.63
2019-02-08T15:29:39.858Z,3.97
2019-02-08T15:32:21.170Z,9.70
2019-02-08T15:34:50.902Z,4.20
2019-02-08T15:37:22.860Z,5.50
2019-02-08T15:39:55.524Z,7.43
2019-02-08T15:42:25.902Z,4.47
2019-02-08T15:45:07.696Z,10.43
2019-02-08T15:47:38.075Z,5.83
2019-02-08T15:50:09.325Z,3.17
2019-02-08T15:52:48.596Z,5.73
2019-02-08T15:55:22.271Z,4.40
2019-02-08T15:57:52.109Z,4.33
2019-02-08T16:00:25.264Z,5.67
2019-02-08T16:02:55.163Z,5.93
2019-02-08T16:05:29.131Z,5.47
2019-02-08T16:08:00.124Z,5.37
2019-02-08T16:10:29.995Z,3.23
2019-02-08T16:13:01.004Z,2.13
2019-02-08T16:15:32.353Z,7.00
2019-02-08T16:18:03.598Z,4.27
2019-02-08T16:20:34.646Z,3.60
2019-02-08T16:23:17.246Z,5.03
2019-02-08T16:25:50.107Z,5.70
2019-02-08T16:28:20.929Z,4.90
2019-02-08T16:31:00.936Z,2.77
2019-02-08T16:33:32.290Z,7.23
2019-02-08T16:36:02.356Z,8.53
2019-02-08T16:38:33.661Z,5.23
2019-02-08T16:41:03.363Z,9.80
2019-02-08T16:43:33.081Z,6.53
2019-02-08T16:46:02.764Z,5.57
2019-02-08T16:48:33.303Z,10.00
2019-02-08T16:51:03.053Z,4.17
2019-02-08T16:53:33.897Z,6.97
2019-02-08T16:56:03.670Z,9.10
2019-02-08T16:58:34.071Z,5.67
2019-02-08T17:01:13.767Z,4.00
2019-02-08T17:03:43.595Z,6.60
2019-02-08T17:06:14.789Z,5.50
2019-02-08T17:08:45.673Z,3.50
2019-02-08T17:11:16.729Z,4.77
2019-02-08T17:13:50.009Z,8.93
2019-02-08T17:16:23.624Z,6.27
2019-02-08T17:18:53.533Z,5.57
2019-02-08T17:21:32.463Z,5.37
2019-02-08T17:24:02.275Z,6.97
2019-02-08T17:26:32.402Z,6.57
2019-02-08T17:29:02.259Z,10.70
2019-02-08T17:31:32.637Z,3.83
2019-02-08T17:34:12.852Z,5.00
2019-02-08T17:36:42.693Z,8.47
2019-02-08T17:39:19.797Z,10.37
2019-02-08T17:41:49.561Z,4.43
2019-02-08T17:44:23.560Z,6.97
2019-02-08T17:46:54.702Z,6.80
2019-02-08T17:49:31.218Z,4.33
2019-02-08T17:52:01.589Z,4.37
2019-02-08T17:54:37.284Z,4.70
2019-02-08T17:57:14.989Z,6.20
2019-02-08T17:59:47.872Z,6.83
2019-02-08T18:02:33.057Z,8.63
2019-02-08T18:05:02.986Z,7.17
2019-02-08T18:07:33.731Z,7.27
2019-02-08T18:10:11.732Z,5.17
2019-02-08T18:12:53.703Z,4.33
2019-02-08T18:15:43.626Z,4.63
2019-02-08T18:18:20.769Z,5.27
2019-02-08T18:20:53.843Z,7.07
2019-02-08T18:23:25.135Z,8.50
2019-02-08T18:26:11.664Z,5.47
2019-02-08T18:28:41.867Z,9.63
2019-02-08T18:31:14.033Z,5.47
2019-02-08T18:33:44.252Z,4.70
2019-02-08T18:36:14.151Z,8.50
2019-02-08T18:38:43.942Z,6.70
2019-02-08T18:41:19.704Z,6.27
2019-02-08T18:43:56.157Z,4.03
2019-02-08T18:46:33.178Z,8.03
2019-02-08T18:49:03.119Z,6.57
2019-02-08T18:51:32.758Z,4.37
2019-02-08T18:54:05.458Z,4.60
2019-02-08T18:56:35.775Z,4.70
2019-02-08T18:59:05.670Z,5.20
2019-02-08T19:01:35.450Z,8.13
2019-02-08T19:04:05.124Z,4.40
2019-02-08T19:06:34.730Z,4.97
2019-02-08T19:09:05.991Z,6.27
2019-02-08T19:11:35.646Z,5.53
2019-02-08T19:14:07.816Z,6.70
2019-02-08T19:16:37.379Z,6.30
2019-02-08T19:19:07.124Z,6.00
2019-02-08T19:21:36.719Z,5.10
2019-02-08T19:24:06.527Z,5.50
2019-02-08T19:26:36.211Z,5.53
2019-02-08T19:29:06.238Z,7.23
2019-02-08T19:31:35.892Z,5.63
2019-02-08T19:34:05.580Z,5.30
2019-02-08T19:36:35.567Z,8.30
2019-02-08T19:39:08.274Z,4.77
2019-02-08T19:41:37.951Z,5.53
2019-02-08T19:44:07.755Z,7.20
2019-02-08T19:46:37.437Z,5.17
2019-02-08T19:49:07.603Z,6.07
2019-02-08T19:51:37.876Z,5.77
2019-02-08T19:54:07.686Z,4.20
2019-02-08T19:56:37.370Z,5.20
2019-02-08T19:59:07.065Z,4.37
2019-02-08T20:01:36.851Z,5.73
2019-02-08T20:04:06.526Z,9.83
2019-02-08T20:06:37.229Z,7.57
2019-02-08T20:09:10.008Z,4.50
2019-02-08T20:11:42.055Z,7.03
2019-02-08T20:14:11.781Z,8.70
2019-02-08T20:16:41.543Z,6.23
2019-02-08T20:19:11.170Z,8.40
2019-02-08T20:21:42.301Z,7.87
2019-02-08T20:24:11.929Z,12.50
2019-02-08T20:26:42.066Z,10.93
2019-02-08T20:29:12.183Z,9.83
2019-02-08T20:31:42.274Z,7.33
2019-02-08T20:34:12.277Z,10.20
2019-02-08T20:36:41.895Z,4.90
2019-02-08T20:39:12.286Z,10.67
2019-02-08T20:41:43.025Z,3.97
2019-02-08T20:44:12.811Z,10.40
2019-02-08T20:46:44.262Z,9.20
2019-02-08T20:49:13.995Z,6.13
2019-02-08T20:51:43.647Z,6.80
2019-02-08T20:54:13.299Z,4.43
2019-02-08T20:56:42.975Z,5.90
2019-02-08T20:59:12.719Z,5.83
2019-02-08T21:01:42.475Z,8.77
2019-02-08T21:04:12.244Z,8.20
2019-02-08T21:06:43.200Z,8.97
2019-02-08T21:09:18.879Z,6.30
2019-02-08T21:11:49.996Z,6.00
2019-02-08T21:14:19.886Z,9.07
2019-02-08T21:16:49.499Z,6.67
2019-02-08T21:19:19.246Z,7.90
2019-02-08T21:21:52.353Z,5.80
2019-02-08T21:24:22.149Z,9.07
2019-02-08T21:26:51.786Z,9.67
2019-02-08T21:29:21.759Z,5.77
2019-02-08T21:31:52.038Z,10.23
2019-02-08T21:34:23.390Z,8.40
2019-02-08T21:36:53.047Z,9.67
2019-02-08T21:39:24.924Z,5.90
2019-02-08T21:41:54.622Z,12.30
2019-02-08T21:44:24.231Z,12.10
2019-02-08T21:46:53.820Z,9.53
2019-02-08T21:49:23.478Z,6.97
2019-02-08T21:51:53.098Z,10.33
2019-02-08T21:54:22.750Z,8.97
2019-02-08T21:56:54.629Z,9.90
2019-02-08T21:59:24.487Z,8.33
2019-02-08T22:01:54.127Z,8.27
2019-02-08T22:04:23.811Z,10.13
2019-02-08T22:06:53.421Z,8.33
2019-02-08T22:09:23.081Z,13.20
2019-02-08T22:11:52.760Z,9.90
2019-02-08T22:14:22.396Z,12.40
2019-02-08T22:16:52.041Z,10.70
2019-02-08T22:19:21.659Z,13.40
2019-02-08T22:21:51.334Z,12.07
2019-02-08T22:24:20.987Z,9.80
2019-02-08T22:26:50.600Z,11.23
2019-02-08T22:29:20.203Z,9.17
2019-02-08T22:31:49.864Z,11.23
2019-02-08T22:34:19.466Z,8.77
2019-02-08T22:36:49.116Z,9.27
2019-02-08T22:39:18.722Z,8.90
2019-02-08T22:41:48.373Z,8.87
2019-02-08T22:44:17.979Z,10.33
2019-02-08T22:46:47.671Z,11.90
2019-02-08T22:49:17.331Z,7.73
2019-02-08T22:51:47.611Z,8.27
2019-02-08T22:54:17.350Z,10.70
2019-02-08T22:56:46.942Z,10.67
2019-02-08T22:59:21.903Z,10.97
2019-02-08T23:01:51.200Z,10.50
2019-02-08T23:04:20.942Z,15.20
2019-02-08T23:06:50.572Z,12.73
2019-02-08T23:09:22.194Z,9.47
2019-02-08T23:11:51.980Z,9.50
2019-02-08T23:14:21.793Z,11.53
2019-02-08T23:16:51.388Z,9.33
2019-02-08T23:19:21.074Z,12.97
2019-02-08T23:21:50.661Z,9.63
2019-02-08T23:24:20.379Z,8.37
2019-02-08T23:26:50.029Z,11.80
2019-02-08T23:29:19.615Z,10.47
2019-02-08T23:31:49.262Z,11.73
2019-02-08T23:34:18.878Z,10.63
2019-02-08T23:36:48.563Z,9.67
2019-02-08T23:39:18.136Z,12.90
2019-02-08T23:41:47.798Z,13.20
2019-02-08T23:44:17.412Z,8.97
2019-02-08T23:46:47.015Z,10.40
2019-02-08T23:49:16.675Z,16.37
2019-02-08T23:51:46.352Z,8.73
2019-02-08T23:54:15.987Z,13.97
2019-02-08T23:56:48.055Z,9.30
2019-02-08T23:59:17.716Z,8.97
